sensor_id;sensor_type;location;lat;lon;timestamp;pressure;altitude;pressure_sealevel;temperature;humidity
69306;BME280;56427;51.580;4.656;2022-09-27T00:00:42;99795.31;;;9.17;100.00
69306;BME280;56427;51.580;4.656;2022-09-27T00:03:09;99781.72;;;9.15;100.00
69306;BME280;56427;51.580;4.656;2022-09-27T00:05:35;99780.28;;;9.03;100.00
69306;BME280;56427;51.580;4.656;2022-09-27T00:08:00;99785.16;;;9.06;100.00
69306;BME280;56427;51.580;4.656;2022-09-27T00:10:26;99779.75;;;8.99;100.00
69306;BME280;56427;51.580;4.656;2022-09-27T00:12:51;99784.34;;;9.06;100.00
69306;BME280;56427;51.580;4.656;2022-09-27T00:15:17;99793.94;;;8.95;100.00
69306;BME280;56427;51.580;4.656;2022-09-27T00:17:42;99812.56;;;8.99;100.00
69306;BME280;56427;51.580;4.656;2022-09-27T00:20:08;99808.22;;;8.99;100.00
69306;BME280;56427;51.580;4.656;2022-09-27T00:22:34;99798.56;;;9.01;100.00
69306;BME280;56427;51.580;4.656;2022-09-27T00:25:00;99781.56;;;8.89;100.00
69306;BME280;56427;51.580;4.656;2022-09-27T00:27:26;99790.84;;;8.82;100.00
69306;BME280;56427;51.580;4.656;2022-09-27T00:29:52;99788.09;;;8.93;100.00
69306;BME280;56427;51.580;4.656;2022-09-27T00:32:18;99785.78;;;8.90;100.00
69306;BME280;56427;51.580;4.656;2022-09-27T00:34:43;99794.22;;;8.92;100.00
69306;BME280;56427;51.580;4.656;2022-09-27T00:37:09;99804.75;;;8.81;100.00
69306;BME280;56427;51.580;4.656;2022-09-27T00:39:35;99817.16;;;8.77;100.00
69306;BME280;56427;51.580;4.656;2022-09-27T00:42:03;99828.47;;;8.66;100.00
69306;BME280;56427;51.580;4.656;2022-09-27T00:49:32;99801.38;;;8.71;100.00
69306;BME280;56427;51.580;4.656;2022-09-27T00:52:04;99805.44;;;8.73;100.00
69306;BME280;56427;51.580;4.656;2022-09-27T00:54:33;99804.47;;;8.84;100.00
69306;BME280;56427;51.580;4.656;2022-09-27T00:57:01;99810.31;;;8.86;100.00
69306;BME280;56427;51.580;4.656;2022-09-27T00:59:39;99801.09;;;8.74;100.00
69306;BME280;56427;51.580;4.656;2022-09-27T01:02:06;99802.28;;;8.79;100.00
69306;BME280;56427;51.580;4.656;2022-09-27T01:04:32;99797.69;;;8.73;100.00
69306;BME280;56427;51.580;4.656;2022-09-27T01:06:58;99801.13;;;8.64;100.00
69306;BME280;56427;51.580;4.656;2022-09-27T01:09:24;99804.50;;;8.64;100.00
69306;BME280;56427;51.580;4.656;2022-09-27T01:12:12;99796.66;;;8.46;100.00
69306;BME280;56427;51.580;4.656;2022-09-27T01:18:12;99813.94;;;8.56;100.00
69306;BME280;56427;51.580;4.656;2022-09-27T01:21:17;99829.72;;;8.62;100.00
69306;BME280;56427;51.580;4.656;2022-09-27T01:26:29;99837.50;;;9.00;100.00
69306;BME280;56427;51.580;4.656;2022-09-27T01:34:33;99828.91;;;8.99;100.00
69306;BME280;56427;51.580;4.656;2022-09-27T01:37:44;99831.59;;;9.08;100.00
69306;BME280;56427;51.580;4.656;2022-09-27T01:40:25;99836.97;;;8.96;100.00
69306;BME280;56427;51.580;4.656;2022-09-27T01:43:09;99827.06;;;8.92;100.00
69306;BME280;56427;51.580;4.656;2022-09-27T01:45:42;99839.19;;;8.81;100.00
69306;BME280;56427;51.580;4.656;2022-09-27T01:48:15;99836.59;;;8.81;100.00
69306;BME280;56427;51.580;4.656;2022-09-27T01:50:51;99834.94;;;8.90;100.00
69306;BME280;56427;51.580;4.656;2022-09-27T01:53:20;99846.38;;;8.88;100.00
69306;BME280;56427;51.580;4.656;2022-09-27T01:55:49;99851.69;;;8.86;100.00
69306;BME280;56427;51.580;4.656;2022-09-27T01:58:21;99850.88;;;8.95;100.00
69306;BME280;56427;51.580;4.656;2022-09-27T02:00:49;99853.97;;;8.99;100.00
69306;BME280;56427;51.580;4.656;2022-09-27T02:03:22;99854.13;;;8.97;100.00
69306;BME280;56427;51.580;4.656;2022-09-27T02:05:52;99855.09;;;8.96;100.00
69306;BME280;56427;51.580;4.656;2022-09-27T02:08:39;99847.72;;;9.01;100.00
69306;BME280;56427;51.580;4.656;2022-09-27T02:11:10;99840.25;;;8.89;100.00
69306;BME280;56427;51.580;4.656;2022-09-27T02:13:48;99830.88;;;8.88;100.00
69306;BME280;56427;51.580;4.656;2022-09-27T02:16:32;99833.59;;;8.86;100.00
69306;BME280;56427;51.580;4.656;2022-09-27T02:19:08;99837.41;;;8.92;100.00
69306;BME280;56427;51.580;4.656;2022-09-27T02:21:56;99838.78;;;8.76;100.00
69306;BME280;56427;51.580;4.656;2022-09-27T02:24:35;99847.38;;;8.77;100.00
69306;BME280;56427;51.580;4.656;2022-09-27T02:27:11;99861.69;;;8.61;100.00
69306;BME280;56427;51.580;4.656;2022-09-27T02:29:42;99878.59;;;8.56;100.00
69306;BME280;56427;51.580;4.656;2022-09-27T02:32:09;99862.28;;;8.55;100.00
69306;BME280;56427;51.580;4.656;2022-09-27T02:34:35;99862.53;;;8.52;100.00
69306;BME280;56427;51.580;4.656;2022-09-27T02:37:03;99854.91;;;8.51;100.00
69306;BME280;56427;51.580;4.656;2022-09-27T02:39:28;99855.47;;;8.44;100.00
69306;BME280;56427;51.580;4.656;2022-09-27T02:41:54;99853.13;;;8.51;100.00
69306;BME280;56427;51.580;4.656;2022-09-27T02:44:25;99843.72;;;8.40;100.00
69306;BME280;56427;51.580;4.656;2022-09-27T02:55:06;99846.88;;;8.34;100.00
69306;BME280;56427;51.580;4.656;2022-09-27T03:00:23;99874.47;;;8.24;100.00
69306;BME280;56427;51.580;4.656;2022-09-27T03:05:29;99859.94;;;8.13;100.00
69306;BME280;56427;51.580;4.656;2022-09-27T03:07:56;99866.31;;;8.28;100.00
69306;BME280;56427;51.580;4.656;2022-09-27T03:10:24;99846.47;;;8.19;100.00
69306;BME280;56427;51.580;4.656;2022-09-27T03:12:50;99847.03;;;8.23;100.00
69306;BME280;56427;51.580;4.656;2022-09-27T03:15:16;99853.66;;;8.25;100.00
69306;BME280;56427;51.580;4.656;2022-09-27T03:17:42;99843.75;;;8.21;100.00
69306;BME280;56427;51.580;4.656;2022-09-27T03:20:07;99845.09;;;8.25;100.00
69306;BME280;56427;51.580;4.656;2022-09-27T03:22:33;99840.59;;;8.37;100.00
69306;BME280;56427;51.580;4.656;2022-09-27T03:24:59;99851.78;;;8.27;100.00
69306;BME280;56427;51.580;4.656;2022-09-27T03:27:25;99862.66;;;8.11;100.00
69306;BME280;56427;51.580;4.656;2022-09-27T03:29:50;99886.06;;;8.20;100.00
69306;BME280;56427;51.580;4.656;2022-09-27T03:32:15;99888.66;;;8.29;100.00
69306;BME280;56427;51.580;4.656;2022-09-27T03:34:40;99885.41;;;8.47;100.00
69306;BME280;56427;51.580;4.656;2022-09-27T03:37:06;99877.34;;;8.50;100.00
69306;BME280;56427;51.580;4.656;2022-09-27T03:39:32;99871.13;;;8.43;100.00
69306;BME280;56427;51.580;4.656;2022-09-27T03:41:58;99865.38;;;8.29;100.00
69306;BME280;56427;51.580;4.656;2022-09-27T03:44:23;99855.84;;;8.20;100.00
69306;BME280;56427;51.580;4.656;2022-09-27T03:46:48;99862.94;;;8.18;100.00
69306;BME280;56427;51.580;4.656;2022-09-27T03:49:13;99855.44;;;8.15;100.00
69306;BME280;56427;51.580;4.656;2022-09-27T03:51:39;99878.97;;;8.22;100.00
69306;BME280;56427;51.580;4.656;2022-09-27T03:54:05;99872.72;;;8.15;100.00
69306;BME280;56427;51.580;4.656;2022-09-27T03:56:30;99876.13;;;8.15;100.00
69306;BME280;56427;51.580;4.656;2022-09-27T03:58:56;99877.91;;;8.15;100.00
69306;BME280;56427;51.580;4.656;2022-09-27T04:01:21;99864.97;;;8.05;100.00
69306;BME280;56427;51.580;4.656;2022-09-27T04:03:46;99860.75;;;8.04;100.00
69306;BME280;56427;51.580;4.656;2022-09-27T04:06:11;99846.59;;;7.98;100.00
69306;BME280;56427;51.580;4.656;2022-09-27T04:08:38;99833.81;;;7.97;100.00
69306;BME280;56427;51.580;4.656;2022-09-27T04:11:03;99842.09;;;7.90;100.00
69306;BME280;56427;51.580;4.656;2022-09-27T04:13:28;99845.94;;;7.96;100.00
69306;BME280;56427;51.580;4.656;2022-09-27T04:15:54;99859.78;;;7.95;100.00
69306;BME280;56427;51.580;4.656;2022-09-27T04:18:19;99865.50;;;7.99;100.00
69306;BME280;56427;51.580;4.656;2022-09-27T04:20:45;99854.50;;;7.97;100.00
69306;BME280;56427;51.580;4.656;2022-09-27T04:23:10;99859.00;;;8.04;100.00
69306;BME280;56427;51.580;4.656;2022-09-27T04:25:36;99863.88;;;7.98;100.00
69306;BME280;56427;51.580;4.656;2022-09-27T04:28:01;99860.59;;;8.05;100.00
69306;BME280;56427;51.580;4.656;2022-09-27T04:30:28;99853.38;;;8.09;100.00
69306;BME280;56427;51.580;4.656;2022-09-27T04:32:53;99838.44;;;8.03;100.00
69306;BME280;56427;51.580;4.656;2022-09-27T04:35:18;99837.75;;;8.01;100.00
69306;BME280;56427;51.580;4.656;2022-09-27T04:38:02;99839.66;;;7.99;100.00
69306;BME280;56427;51.580;4.656;2022-09-27T04:40:28;99833.69;;;7.98;100.00
69306;BME280;56427;51.580;4.656;2022-09-27T04:42:54;99836.53;;;7.85;100.00
69306;BME280;56427;51.580;4.656;2022-09-27T04:45:19;99836.41;;;7.87;100.00
69306;BME280;56427;51.580;4.656;2022-09-27T04:47:46;99835.00;;;7.83;100.00
69306;BME280;56427;51.580;4.656;2022-09-27T04:50:13;99830.69;;;7.83;100.00
69306;BME280;56427;51.580;4.656;2022-09-27T04:52:39;99822.53;;;7.78;100.00
69306;BME280;56427;51.580;4.656;2022-09-27T04:55:05;99830.53;;;7.75;100.00
69306;BME280;56427;51.580;4.656;2022-09-27T04:57:31;99829.41;;;7.68;100.00
69306;BME280;56427;51.580;4.656;2022-09-27T04:59:56;99832.84;;;7.78;100.00
69306;BME280;56427;51.580;4.656;2022-09-27T05:02:27;99842.19;;;7.69;100.00
69306;BME280;56427;51.580;4.656;2022-09-27T05:04:54;99842.19;;;7.69;100.00
69306;BME280;56427;51.580;4.656;2022-09-27T05:07:24;99846.56;;;7.79;100.00
69306;BME280;56427;51.580;4.656;2022-09-27T05:09:49;99848.34;;;7.78;100.00
69306;BME280;56427;51.580;4.656;2022-09-27T05:12:14;99847.38;;;7.79;100.00
69306;BME280;56427;51.580;4.656;2022-09-27T05:14:40;99859.22;;;7.72;100.00
69306;BME280;56427;51.580;4.656;2022-09-27T05:17:05;99857.16;;;7.76;100.00
69306;BME280;56427;51.580;4.656;2022-09-27T05:19:34;99860.84;;;7.83;100.00
69306;BME280;56427;51.580;4.656;2022-09-27T05:21:59;99856.09;;;7.78;100.00
69306;BME280;56427;51.580;4.656;2022-09-27T05:24:25;99859.09;;;7.83;100.00
69306;BME280;56427;51.580;4.656;2022-09-27T05:26:52;99860.31;;;7.79;100.00
69306;BME280;56427;51.580;4.656;2022-09-27T05:29:18;99846.72;;;7.87;100.00
69306;BME280;56427;51.580;4.656;2022-09-27T05:31:43;99856.38;;;7.85;100.00
69306;BME280;56427;51.580;4.656;2022-09-27T05:34:08;99847.13;;;7.82;100.00
69306;BME280;56427;51.580;4.656;2022-09-27T05:36:35;99850.69;;;7.81;100.00
69306;BME280;56427;51.580;4.656;2022-09-27T05:39:01;99850.13;;;7.97;100.00
69306;BME280;56427;51.580;4.656;2022-09-27T05:41:26;99858.41;;;7.91;100.00
69306;BME280;56427;51.580;4.656;2022-09-27T05:43:52;99861.13;;;7.99;100.00
69306;BME280;56427;51.580;4.656;2022-09-27T05:46:17;99856.00;;;7.89;100.00
69306;BME280;56427;51.580;4.656;2022-09-27T05:48:43;99856.94;;;7.98;100.00
69306;BME280;56427;51.580;4.656;2022-09-27T05:51:09;99851.38;;;8.03;100.00
69306;BME280;56427;51.580;4.656;2022-09-27T05:53:35;99849.31;;;8.06;100.00
69306;BME280;56427;51.580;4.656;2022-09-27T05:56:02;99845.22;;;8.04;100.00
69306;BME280;56427;51.580;4.656;2022-09-27T05:58:28;99839.00;;;8.06;100.00
69306;BME280;56427;51.580;4.656;2022-09-27T06:00:53;99843.50;;;8.04;100.00
69306;BME280;56427;51.580;4.656;2022-09-27T06:03:18;99849.06;;;8.09;100.00
69306;BME280;56427;51.580;4.656;2022-09-27T06:05:44;99847.56;;;8.07;100.00
69306;BME280;56427;51.580;4.656;2022-09-27T06:08:11;99840.19;;;8.12;100.00
69306;BME280;56427;51.580;4.656;2022-09-27T06:10:38;99839.00;;;8.16;100.00
69306;BME280;56427;51.580;4.656;2022-09-27T06:13:10;99842.66;;;8.14;100.00
69306;BME280;56427;51.580;4.656;2022-09-27T06:15:36;99839.94;;;8.05;100.00
69306;BME280;56427;51.580;4.656;2022-09-27T06:18:11;99825.41;;;7.95;100.00
69306;BME280;56427;51.580;4.656;2022-09-27T06:20:38;99839.78;;;8.07;100.00
69306;BME280;56427;51.580;4.656;2022-09-27T06:23:09;99842.25;;;8.08;100.00
69306;BME280;56427;51.580;4.656;2022-09-27T06:25:35;99843.34;;;8.06;100.00
69306;BME280;56427;51.580;4.656;2022-09-27T06:28:01;99854.22;;;8.09;100.00
69306;BME280;56427;51.580;4.656;2022-09-27T06:30:27;99856.28;;;8.06;100.00
69306;BME280;56427;51.580;4.656;2022-09-27T06:32:57;99848.34;;;8.07;100.00
69306;BME280;56427;51.580;4.656;2022-09-27T06:35:22;99856.81;;;8.09;100.00
69306;BME280;56427;51.580;4.656;2022-09-27T06:37:49;99866.31;;;8.09;100.00
69306;BME280;56427;51.580;4.656;2022-09-27T06:40:15;99860.34;;;8.18;100.00
69306;BME280;56427;51.580;4.656;2022-09-27T06:42:40;99859.00;;;8.14;100.00
69306;BME280;56427;51.580;4.656;2022-09-27T06:45:06;99862.38;;;8.24;100.00
69306;BME280;56427;51.580;4.656;2022-09-27T06:47:37;99855.19;;;8.18;100.00
69306;BME280;56427;51.580;4.656;2022-09-27T06:50:03;99838.03;;;8.17;100.00
69306;BME280;56427;51.580;4.656;2022-09-27T06:52:30;99834.22;;;8.11;100.00
69306;BME280;56427;51.580;4.656;2022-09-27T06:54:55;99837.09;;;8.18;100.00
69306;BME280;56427;51.580;4.656;2022-09-27T06:57:21;99839.13;;;8.15;100.00
69306;BME280;56427;51.580;4.656;2022-09-27T07:00:05;99839.13;;;8.15;100.00
69306;BME280;56427;51.580;4.656;2022-09-27T07:02:49;99845.78;;;8.17;100.00
69306;BME280;56427;51.580;4.656;2022-09-27T07:05:15;99842.91;;;8.20;100.00
69306;BME280;56427;51.580;4.656;2022-09-27T07:07:41;99851.38;;;8.22;100.00
69306;BME280;56427;51.580;4.656;2022-09-27T07:10:09;99853.78;;;8.34;100.00
69306;BME280;56427;51.580;4.656;2022-09-27T07:12:35;99859.66;;;8.16;100.00
69306;BME280;56427;51.580;4.656;2022-09-27T07:15:00;99878.56;;;8.26;100.00
69306;BME280;56427;51.580;4.656;2022-09-27T07:17:26;99885.94;;;8.31;100.00
69306;BME280;56427;51.580;4.656;2022-09-27T07:19:52;99889.72;;;8.37;100.00
69306;BME280;56427;51.580;4.656;2022-09-27T07:22:18;99890.13;;;8.32;100.00
69306;BME280;56427;51.580;4.656;2022-09-27T07:24:43;99899.25;;;8.36;100.00
69306;BME280;56427;51.580;4.656;2022-09-27T07:27:08;99896.53;;;8.28;100.00
69306;BME280;56427;51.580;4.656;2022-09-27T07:29:34;99894.50;;;8.41;100.00
69306;BME280;56427;51.580;4.656;2022-09-27T07:32:00;99896.97;;;8.43;100.00
69306;BME280;56427;51.580;4.656;2022-09-27T07:34:25;99894.50;;;8.41;100.00
69306;BME280;56427;51.580;4.656;2022-09-27T07:36:51;99898.72;;;8.33;100.00
69306;BME280;56427;51.580;4.656;2022-09-27T07:39:19;99884.69;;;8.35;100.00
69306;BME280;56427;51.580;4.656;2022-09-27T07:41:46;99890.81;;;8.34;100.00
69306;BME280;56427;51.580;4.656;2022-09-27T07:44:12;99877.63;;;8.37;100.00
69306;BME280;56427;51.580;4.656;2022-09-27T07:46:40;99879.38;;;8.37;100.00
69306;BME280;56427;51.580;4.656;2022-09-27T07:49:06;99852.59;;;8.38;100.00
69306;BME280;56427;51.580;4.656;2022-09-27T07:51:31;99858.16;;;8.33;100.00
69306;BME280;56427;51.580;4.656;2022-09-27T07:53:58;99862.13;;;8.37;100.00
69306;BME280;56427;51.580;4.656;2022-09-27T07:56:25;99880.06;;;8.58;100.00
69306;BME280;56427;51.580;4.656;2022-09-27T07:58:51;99874.59;;;8.71;100.00
69306;BME280;56427;51.580;4.656;2022-09-27T08:01:16;99878.44;;;8.67;100.00
69306;BME280;56427;51.580;4.656;2022-09-27T08:03:41;99882.13;;;8.55;100.00
69306;BME280;56427;51.580;4.656;2022-09-27T08:06:06;99879.13;;;8.69;100.00
69306;BME280;56427;51.580;4.656;2022-09-27T08:08:32;99890.38;;;8.78;100.00
69306;BME280;56427;51.580;4.656;2022-09-27T08:10:58;99897.06;;;8.80;100.00
69306;BME280;56427;51.580;4.656;2022-09-27T08:13:23;99901.00;;;8.84;100.00
69306;BME280;56427;51.580;4.656;2022-09-27T08:15:48;99908.91;;;8.83;100.00
69306;BME280;56427;51.580;4.656;2022-09-27T08:18:16;99915.03;;;8.92;100.00
69306;BME280;56427;51.580;4.656;2022-09-27T08:20:42;99915.59;;;8.76;100.00
69306;BME280;56427;51.580;4.656;2022-09-27T08:23:07;99914.13;;;8.63;100.00
69306;BME280;56427;51.580;4.656;2022-09-27T08:25:33;99916.72;;;8.63;100.00
69306;BME280;56427;51.580;4.656;2022-09-27T08:28:01;99917.91;;;8.69;100.00
69306;BME280;56427;51.580;4.656;2022-09-27T08:30:28;99914.13;;;8.63;100.00
69306;BME280;56427;51.580;4.656;2022-09-27T08:32:56;99918.84;;;8.68;100.00
69306;BME280;56427;51.580;4.656;2022-09-27T08:35:22;99923.50;;;8.64;100.00
69306;BME280;56427;51.580;4.656;2022-09-27T08:37:57;99923.38;;;8.66;100.00
69306;BME280;56427;51.580;4.656;2022-09-27T08:43:25;99915.88;;;8.73;100.00
69306;BME280;56427;51.580;4.656;2022-09-27T08:48:25;99914.50;;;8.78;100.00
69306;BME280;56427;51.580;4.656;2022-09-27T08:50:52;99918.31;;;8.74;100.00
69306;BME280;56427;51.580;4.656;2022-09-27T08:53:38;99927.31;;;8.70;100.00
69306;BME280;56427;51.580;4.656;2022-09-27T08:56:07;99932.38;;;8.62;100.00
69306;BME280;56427;51.580;4.656;2022-09-27T08:58:40;99933.31;;;8.61;100.00
69306;BME280;56427;51.580;4.656;2022-09-27T09:01:13;99945.56;;;8.69;100.00
69306;BME280;56427;51.580;4.656;2022-09-27T09:03:46;99950.03;;;8.66;100.00
69306;BME280;56427;51.580;4.656;2022-09-27T09:11:40;99966.25;;;8.59;100.00
69306;BME280;56427;51.580;4.656;2022-09-27T09:15:09;99966.94;;;8.51;100.00
69306;BME280;56427;51.580;4.656;2022-09-27T09:17:54;99962.94;;;8.37;100.00
69306;BME280;56427;51.580;4.656;2022-09-27T09:20:54;99974.91;;;8.38;100.00
69306;BME280;56427;51.580;4.656;2022-09-27T09:28:53;99978.34;;;8.39;100.00
69306;BME280;56427;51.580;4.656;2022-09-27T09:34:13;99981.31;;;8.34;100.00
69306;BME280;56427;51.580;4.656;2022-09-27T09:36:49;99961.69;;;8.32;100.00
69306;BME280;56427;51.580;4.656;2022-09-27T09:39:21;99965.41;;;8.39;100.00
69306;BME280;56427;51.580;4.656;2022-09-27T09:44:42;99980.91;;;8.29;100.00
69306;BME280;56427;51.580;4.656;2022-09-27T09:47:32;99978.03;;;8.42;100.00
69306;BME280;56427;51.580;4.656;2022-09-27T09:50:04;99968.81;;;8.39;100.00
69306;BME280;56427;51.580;4.656;2022-09-27T09:52:42;99957.13;;;8.55;100.00
69306;BME280;56427;51.580;4.656;2022-09-27T09:55:28;99972.78;;;8.53;100.00
69306;BME280;56427;51.580;4.656;2022-09-27T09:58:01;99977.00;;;8.54;100.00
69306;BME280;56427;51.580;4.656;2022-09-27T10:00:30;99962.16;;;8.46;100.00
69306;BME280;56427;51.580;4.656;2022-09-27T10:02:58;99968.84;;;8.49;100.00
69306;BME280;56427;51.580;4.656;2022-09-27T10:05:25;99952.22;;;8.52;100.00
69306;BME280;56427;51.580;4.656;2022-09-27T10:07:53;99957.94;;;8.65;100.00
69306;BME280;56427;51.580;4.656;2022-09-27T10:10:19;99954.66;;;8.53;100.00
69306;BME280;56427;51.580;4.656;2022-09-27T10:12:46;99948.00;;;8.70;100.00
69306;BME280;56427;51.580;4.656;2022-09-27T10:15:23;99941.06;;;8.71;100.00
69306;BME280;56427;51.580;4.656;2022-09-27T10:17:50;99936.00;;;8.79;100.00
69306;BME280;56427;51.580;4.656;2022-09-27T10:20:56;99939.41;;;8.89;100.00
69306;BME280;56427;51.580;4.656;2022-09-27T10:23:23;99937.84;;;9.16;100.00
69306;BME280;56427;51.580;4.656;2022-09-27T10:25:53;99931.13;;;9.33;100.00
69306;BME280;56427;51.580;4.656;2022-09-27T10:28:37;99932.53;;;9.55;100.00
69306;BME280;56427;51.580;4.656;2022-09-27T10:31:08;99919.00;;;9.61;100.00
69306;BME280;56427;51.580;4.656;2022-09-27T10:33:37;99924.66;;;9.74;100.00
69306;BME280;56427;51.580;4.656;2022-09-27T10:36:25;99910.06;;;9.73;100.00
69306;BME280;56427;51.580;4.656;2022-09-27T10:38:54;99901.25;;;9.66;100.00
69306;BME280;56427;51.580;4.656;2022-09-27T10:43:48;99903.25;;;10.00;100.00
69306;BME280;56427;51.580;4.656;2022-09-27T10:46:32;99900.81;;;10.17;100.00
69306;BME280;56427;51.580;4.656;2022-09-27T10:51:50;99902.31;;;10.37;100.00
69306;BME280;56427;51.580;4.656;2022-09-27T10:54:28;99900.00;;;10.52;100.00
69306;BME280;56427;51.580;4.656;2022-09-27T10:57:09;99895.72;;;10.61;100.00
69306;BME280;56427;51.580;4.656;2022-09-27T10:59:46;99903.50;;;10.43;100.00
69306;BME280;56427;51.580;4.656;2022-09-27T11:02:36;99898.53;;;10.49;100.00
69306;BME280;56427;51.580;4.656;2022-09-27T11:05:11;99894.81;;;10.52;100.00
69306;BME280;56427;51.580;4.656;2022-09-27T11:07:50;99897.56;;;10.50;100.00
69306;BME280;56427;51.580;4.656;2022-09-27T11:10:26;99893.22;;;10.33;100.00
69306;BME280;56427;51.580;4.656;2022-09-27T11:13:18;99896.13;;;10.74;100.00
69306;BME280;56427;51.580;4.656;2022-09-27T11:26:49;99882.41;;;11.16;100.00
69306;BME280;56427;51.580;4.656;2022-09-27T11:29:31;99872.84;;;11.59;100.00
69306;BME280;56427;51.580;4.656;2022-09-27T11:32:07;99874.28;;;12.29;100.00
69306;BME280;56427;51.580;4.656;2022-09-27T11:45:53;99856.88;;;11.97;100.00
69306;BME280;56427;51.580;4.656;2022-09-27T11:48:43;99860.56;;;11.86;100.00
69306;BME280;56427;51.580;4.656;2022-09-27T11:51:32;99856.53;;;11.92;100.00
69306;BME280;56427;51.580;4.656;2022-09-27T11:54:24;99864.72;;;11.63;100.00
69306;BME280;56427;51.580;4.656;2022-09-27T11:57:03;99856.44;;;11.59;100.00
69306;BME280;56427;51.580;4.656;2022-09-27T12:02:43;99841.16;;;11.56;100.00
69306;BME280;56427;51.580;4.656;2022-09-27T12:10:25;99843.19;;;11.87;100.00
69306;BME280;56427;51.580;4.656;2022-09-27T12:12:53;99843.03;;;11.88;100.00
69306;BME280;56427;51.580;4.656;2022-09-27T12:15:23;99836.75;;;12.07;100.00
69306;BME280;56427;51.580;4.656;2022-09-27T12:17:54;99832.25;;;11.67;100.00
69306;BME280;56427;51.580;4.656;2022-09-27T12:23:01;99829.94;;;11.47;100.00
69306;BME280;56427;51.580;4.656;2022-09-27T12:25:35;99828.47;;;11.53;100.00
69306;BME280;56427;51.580;4.656;2022-09-27T12:30:30;99835.50;;;11.69;100.00
69306;BME280;56427;51.580;4.656;2022-09-27T12:35:51;99826.16;;;11.92;100.00
69306;BME280;56427;51.580;4.656;2022-09-27T12:38:34;99816.25;;;12.04;100.00
69306;BME280;56427;51.580;4.656;2022-09-27T12:41:04;99815.59;;;12.02;100.00
69306;BME280;56427;51.580;4.656;2022-09-27T12:43:31;99814.63;;;12.20;100.00
69306;BME280;56427;51.580;4.656;2022-09-27T12:48:51;99821.28;;;12.30;100.00
69306;BME280;56427;51.580;4.656;2022-09-27T12:51:21;99817.03;;;12.46;100.00
69306;BME280;56427;51.580;4.656;2022-09-27T13:05:38;99856.94;;;9.87;100.00
69306;BME280;56427;51.580;4.656;2022-09-27T13:11:28;99837.69;;;9.90;100.00
69306;BME280;56427;51.580;4.656;2022-09-27T13:14:00;99823.78;;;10.09;100.00
69306;BME280;56427;51.580;4.656;2022-09-27T13:16:27;99819.88;;;10.31;100.00
69306;BME280;56427;51.580;4.656;2022-09-27T13:18:57;99812.53;;;10.36;100.00
69306;BME280;56427;51.580;4.656;2022-09-27T13:24:45;99814.13;;;10.90;100.00
69306;BME280;56427;51.580;4.656;2022-09-27T13:32:37;99810.22;;;11.28;100.00
69306;BME280;56427;51.580;4.656;2022-09-27T13:37:51;99812.19;;;11.34;100.00
69306;BME280;56427;51.580;4.656;2022-09-27T13:40:22;99809.03;;;11.14;100.00
69306;BME280;56427;51.580;4.656;2022-09-27T13:45:48;99811.03;;;11.29;100.00
69306;BME280;56427;51.580;4.656;2022-09-27T13:48:17;99792.00;;;11.20;100.00
69306;BME280;56427;51.580;4.656;2022-09-27T13:50:48;99796.09;;;11.22;100.00
69306;BME280;56427;51.580;4.656;2022-09-27T13:55:51;99793.38;;;11.40;100.00
69306;BME280;56427;51.580;4.656;2022-09-27T14:01:25;99799.00;;;11.19;100.00
69306;BME280;56427;51.580;4.656;2022-09-27T14:03:54;99813.72;;;10.76;100.00
69306;BME280;56427;51.580;4.656;2022-09-27T14:06:25;99829.84;;;10.00;100.00
69306;BME280;56427;51.580;4.656;2022-09-27T14:08:58;99822.88;;;9.64;100.00
69306;BME280;56427;51.580;4.656;2022-09-27T14:11:38;99816.13;;;9.71;100.00
69306;BME280;56427;51.580;4.656;2022-09-27T14:14:05;99800.88;;;10.04;100.00
69306;BME280;56427;51.580;4.656;2022-09-27T14:16:34;99799.47;;;10.28;100.00
69306;BME280;56427;51.580;4.656;2022-09-27T14:19:01;99794.94;;;10.30;100.00
69306;BME280;56427;51.580;4.656;2022-09-27T14:21:29;99795.78;;;10.57;100.00
69306;BME280;56427;51.580;4.656;2022-09-27T14:26:47;99795.09;;;10.28;100.00
69306;BME280;56427;51.580;4.656;2022-09-27T14:29:18;99807.84;;;10.40;100.00
69306;BME280;56427;51.580;4.656;2022-09-27T14:31:44;99811.09;;;10.06;100.00
69306;BME280;56427;51.580;4.656;2022-09-27T14:34:13;99816.94;;;10.08;100.00
69306;BME280;56427;51.580;4.656;2022-09-27T14:36:39;99821.31;;;10.07;100.00
69306;BME280;56427;51.580;4.656;2022-09-27T14:39:27;99805.78;;;9.89;100.00
69306;BME280;56427;51.580;4.656;2022-09-27T14:41:57;99795.41;;;9.71;100.00
69306;BME280;56427;51.580;4.656;2022-09-27T14:44:23;99785.84;;;9.90;100.00
69306;BME280;56427;51.580;4.656;2022-09-27T14:47:07;99791.66;;;10.02;100.00
69306;BME280;56427;51.580;4.656;2022-09-27T14:49:33;99800.09;;;9.86;100.00
69306;BME280;56427;51.580;4.656;2022-09-27T14:51:58;99800.53;;;9.81;100.00
69306;BME280;56427;51.580;4.656;2022-09-27T14:54:26;99801.09;;;9.75;100.00
69306;BME280;56427;51.580;4.656;2022-09-27T14:56:53;99786.63;;;9.82;100.00
69306;BME280;56427;51.580;4.656;2022-09-27T14:59:28;99782.22;;;9.65;100.00
69306;BME280;56427;51.580;4.656;2022-09-27T15:01:59;99781.78;;;9.69;100.00
69306;BME280;56427;51.580;4.656;2022-09-27T15:04:29;99803.31;;;9.52;100.00
69306;BME280;56427;51.580;4.656;2022-09-27T15:06:56;99811.19;;;9.32;100.00
69306;BME280;56427;51.580;4.656;2022-09-27T15:09:22;99807.06;;;9.39;100.00
69306;BME280;56427;51.580;4.656;2022-09-27T15:11:55;99806.47;;;9.28;100.00
69306;BME280;56427;51.580;4.656;2022-09-27T15:14:21;99810.91;;;9.35;100.00
69306;BME280;56427;51.580;4.656;2022-09-27T15:16:50;99810.00;;;9.27;100.00
69306;BME280;56427;51.580;4.656;2022-09-27T15:19:22;99803.41;;;9.32;100.00
69306;BME280;56427;51.580;4.656;2022-09-27T15:21:48;99805.19;;;9.32;100.00
69306;BME280;56427;51.580;4.656;2022-09-27T15:24:36;99795.78;;;9.13;100.00
69306;BME280;56427;51.580;4.656;2022-09-27T15:27:04;99792.97;;;9.24;100.00
69306;BME280;56427;51.580;4.656;2022-09-27T15:29:37;99790.53;;;9.23;100.00